Etusivu
METAR-TAF:

METAR-TAF

Lentoasemat :

N’Djamenan kansainvälinen lentoasema

N'Djamena, Tšad

Leveyspiiri: 12-08N, Pituuspiiri: 015-02E, korkeus merenpinnasta: 295 m

Tämänhetkinen sää

Tämä raportti tehtiin 1 tunti ja 9 minuuttia sitten, kello 20.00 UTC
Tuuli 4 kn pohjoisesta/koillisesta
Lämpötila 26°C
Kosteus 42%
Ilmanpaine 1010 hPa
Näkyvyys 10 km tai enemmän
ei pilviä alle 1500 m:ssä eikä cumulonimbus-pilviä

METAR: FTTJ 162000Z 03004KT CAVOK 26/12 Q1010 NOSIG

Aika: 22:09 (21:09 UTC)

Sääennuste

Tämä raportti tehtiin 4 tuntia ja 9 minuuttia sitten, kello 17.00 UTC
Ennuste voimassa 16. päivästä klo 18 UTC - 17. päivään klo 24 UTC
Tuuli 4 kn eri suunnista
Näkyvyys 10 km tai enemmän
ei pilviä alle 1500 m:ssä eikä cumulonimbus-pilviä
Todennäköisyys 30% :
Ajoittain
17. päivästä klo 04 UTC - 17. päivään klo 10 UTC
Tuuli 12 kn idästä/koillisesta
Näkyvyys: 4000 m
usvaa

TAF: FTTJ 161700Z 1618/1724 VRB04KT CAVOK PROB30 TEMPO 1704/1710 06012KT 4000 HZ

Säähavainnot ja -ennusteet yli 4000 lentoasemalta (METAR- ja TAF-raportit).

Käytössä olevat sääasemat on merkitty karttaan keltaisilla ja punaisilla pisteillä.

Aseta hiiri pisteen päälle nähdäksesi sääaseman nimen.

Klikkaa sitten nähdäksesi säähavainnot ja -ennusteet.

Kartan vaihtaminen: klikkaa mustalla rastilla varustettuja vihreitä pisteitä, niin voit zoomata sisään; viivalla varustettua vihreää pistettä, niin voit zoomata ulos tai vihreitä nuolia, niin pääset viereisille kartoille.


METAR-TAF: